x

South Santa Rosa Is. Ca (46069) Wave Buoy

9:50 - Fri 27th May 2016 All times are PDT. -7 hours from GMT.

  • Sig Wave height 6.9ft
  • Swell Direction
  • Peak Period 10s
  • Average Period 6s
  • Wind
    20mph, 25mph gusts
  • Sea Temp 57°f
  • Ar Temp 54°f
  • Sea Pressure 1014.6mb
  • South Santa Rosa Is. Ca
  • South Santa Rosa Is. Ca

More Historic Weather Station data

Upgrade to MSW Pro to gain access to the past 30 days of data for over 8000 Wavebouys and Weather Stations around the globe.

Join Pro

Comparision Forecast

View Surf forecast
   
Sex 05/27 9:50 7ft 10s 6s 20 25 mph 1014.6mb 57f 54f
8:50 7.5ft 9s 6s 20 22 mph 1014.9mb 57f 54f
7:50 7.5ft 8s 6s 20 25 mph 1014.9mb 57f 54f
6:50 7ft 10s 6s 22 25 mph 1014.4mb 57f 54f
5:50 7.5ft 7s 6s 25 29 mph 1013.9mb 57f 54f
4:50 8ft 7s 6s 25 31 mph 1013.6mb 57f 55f
3:50 7.5ft 8s 6s 27 34 mph 1013.7mb 57f 55f
2:50 8ft 8s 6s 27 34 mph 1014mb 57f 56f
1:50 8ft 7s 6s 27 31 mph 1014.5mb 57f 56f
12:50 7.5ft 7s 6s 25 29 mph 1015.2mb 58f 56f
Qui 05/26 11:50 8ft 8s 6s 25 31 mph 1015.2mb 58f 56f
10:50 7.5ft 7s 6s 27 34 mph 1015.4mb 58f 56f
9:50 8ft 7s 6s 27 34 mph 1015.3mb 58f 56f
8:50 8ft 7s 6s 29 36 mph 1014.9mb 58f 56f
7:50 8ft 7s 6s 29 34 mph 1015.2mb 58f 56f
6:50 7ft 8s 6s 27 34 mph 1015.6mb 58f 57f
5:50 7.5ft 7s 6s 27 34 mph 1015.8mb 57f 57f
3:50 7ft 7s 5s 27 31 mph 1016.8mb 57f 57f
2:50 6.5ft 7s 5s 25 31 mph 1017.5mb 56f 57f
1:50 6ft 8s 5s 27 34 mph 1017.8mb 56f 56f
12:50 7ft 7s 5s 25 29 mph 1019mb 56f 56f
11:50 6ft 8s 5s 25 29 mph 1019.3mb 56f 56f
10:50 7ft 8s 6s 25 29 mph 1019.1mb 56f 56f
9:50 7ft 8s 5s 22 29 mph 1019.5mb 56f 56f
8:50 7ft 8s 6s 27 34 mph 1018.7mb 56f 56f
7:50 7ft 8s 5s 27 31 mph 1018.6mb 56f 56f
6:50 8ft 7s 6s 27 36 mph 1018.4mb 56f 56f
5:50 7ft 7s 6s 25 31 mph 1018.1mb 57f 56f
4:50 7ft 7s 6s 29 36 mph 1017.3mb 57f 56f
3:50 7ft 7s 6s 29 34 mph 1017.1mb 58f 56f
2:50 7ft 7s 5s 29 36 mph 1017.5mb 57f 56f
12:50 6ft 7s 5s 29 38 mph 1018.6mb 58f 57f
Qua 05/25 11:50 6ft 6s 5s 25 34 mph 1019.3mb 58f 57f
10:50 6.5ft 7s 5s 31 36 mph 1019.1mb 59f 57f
9:50 7ft 6s 5s 29 36 mph 1019.1mb 59f 57f
8:50 6.5ft 6s 5s 27 34 mph 1019mb 59f 57f
7:50 6ft 6s 5s 31 34 mph 1018.7mb 59f 58f
6:50 5.5ft 6s 5s 29 34 mph 1018.7mb 59f 58f
5:50 5ft 5s 5s 22 29 mph 1019.2mb 59f 58f
4:50 5ft 10s 5s 22 27 mph 1019.4mb 58f 58f
3:50 5ft 5s 5s 25 31 mph 1019.6mb 58f 58f
2:50 4.5ft 5s 5s 22 27 mph 1020.2mb 59f 58f
1:50 4.5ft 4s 5s 20 25 mph 1020.3mb 59f 58f
12:50 4.5ft 9s 5s 22 25 mph 1020.4mb 59f 57f
11:50 3.5ft 10s 5s 20 25 mph 1020.4mb 59f 57f
10:50 3.5ft 9s 5s 18 22 mph 1020.1mb 59f 57f
9:50 3.5ft 10s 5s 20 25 mph 1019.7mb 59f 57f
8:50 3.5ft 9s 5s 18 20 mph 1019.3mb 59f 57f
7:50 3ft 10s 5s 18 22 mph 1019mb 59f 57f
6:50 2.5ft 10s 6s 18 20 mph 1018.4mb 59f 57f
5:50 3ft 9s 6s 13
mph
1017.9mb 59f 57f
4:50 3ft 9s 6s 11 13 mph 1017.7mb 59f 57f
3:50 3ft 7s 6s 9 11 mph 1017.4mb 59f 57f
2:50 3ft 7s 6s 9 11 mph 1017.5mb 59f 58f
1:50 2.5ft 7s 6s 11 13 mph 1017.6mb 60f 58f
12:50 2.5ft 7s 6s 13
mph
1017.9mb 60f 58f
Ter 05/24 11:50 2.5ft 15s 5s 13 16 mph 1018mb 60f 58f
10:50 2.5ft 15s 5s 11 13 mph 1018mb 60f 59f
9:50 2.5ft 14s 5s 11 13 mph 1017.7mb 60f 59f
8:50 2.5ft 8s 5s 13 16 mph 1017.2mb 58f 59f
7:50 2.5ft 15s 6s 11
mph
1017mb 58f 58f
6:50 2.5ft 15s 5s 11 13 mph 1016.9mb 59f 59f
5:50 2.5ft 5s 6s 13
mph
1016.9mb 60f 59f
4:50 2.5ft 6s 5s 11 13 mph 1017mb 60f 59f
3:50 3ft 5s 5s 7 9 mph 1017mb 60f 58f
2:50 2.5ft 15s 5s 7 9 mph 1017.3mb 60f 58f
1:50 3ft 15s 6s 7
mph
1017.4mb 60f 58f
12:50 2.5ft 5s 6s 7 9 mph 1017.4mb 60f 58f
11:50 3ft 15s 6s 2 4 mph 1017.3mb 60f 57f
10:50 3ft 15s 6s 4
mph
1016.9mb 59f 57f
9:50 2.5ft 15s 5s 7 9 mph 1016.5mb 59f 56f
8:50 3ft 16s 5s 7 9 mph 1016.1mb 59f 56f
7:50 3ft 15s 5s 9 11 mph 1015.4mb 59f 56f
6:50 3.5ft 5s 5s 11 13 mph 1014.8mb 58f 56f
5:50 3.5ft 16s 5s 11 13 mph 1014.4mb 58f 56f
4:50 3.5ft 5s 5s 11 16 mph 1014.1mb 58f 56f
3:50 3.5ft 13s 5s 13 18 mph 1013.9mb 58f 57f
2:50 3.5ft 6s 5s 16 20 mph 1013.6mb 58f 56f
1:50 4ft 6s 5s 13 18 mph 1013.8mb 58f 56f
12:50 4.5ft 6s 5s 16 18 mph 1014.1mb 58f 57f
Seg 05/23 11:50 4.5ft 6s 5s 16 20 mph 1013.8mb 58f 57f
10:50 4.5ft 6s 5s 16 20 mph 1014mb 58f 57f
9:50 4.5ft 6s 5s 18 22 mph 1013.7mb 58f 57f
8:50 4.5ft 6s 5s 18 22 mph 1013.2mb 58f 57f
7:50 4.5ft 6s 5s 18 22 mph 1013mb 58f 57f
6:50 4.5ft 6s 5s 20 22 mph 1013mb 58f 57f